Time;durP1;ratioP1;P1;durP2;ratioP2;P2;SDS_P1;SDS_P2;PMS_P1;PMS_P2;Temp;Humidity;BMP_temperature;BMP_pressure;BME280_temperature;BME280_humidity;BME280_pressure;Samples;Min_cycle;Max_cycle;Signal;HPM_P1;HPM_P2
2022/12/20 00:01:09;;;;;;;42.85;22.80;;;;;;;;;;4983847;28;20038;-58
2022/12/20 00:03:34;;;;;;;47.90;23.17;;;;;;;;;;4983796;28;20393;-59
2022/12/20 00:05:59;;;;;;;41.10;21.33;;;;;;;;;;4976097;28;20496;-58
2022/12/20 00:08:25;;;;;;;38.45;20.25;;;;;;;;;;4976821;28;20089;-58
2022/12/20 00:10:50;;;;;;;44.38;22.33;;;;;;;;;;4975842;28;20094;-58
2022/12/20 00:13:15;;;;;;;36.38;19.92;;;;;;;;;;4976689;28;20147;-59
2022/12/20 00:15:40;;;;;;;39.95;20.48;;;;;;;;;;4975818;28;20136;-58
2022/12/20 00:18:06;;;;;;;36.40;20.10;;;;;;;;;;4974782;28;20432;-59
2022/12/20 00:20:31;;;;;;;41.60;21.83;;;;;;;;;;4977562;28;20122;-59
2022/12/20 00:22:56;;;;;;;36.10;20.25;;;;;;;;;;4973747;28;20117;-58
2022/12/20 00:25:22;;;;;;;37.45;19.88;;;;;;;;;;4973969;28;20046;-59
2022/12/20 00:27:48;;;;;;;34.00;18.55;;;;;;;;;;4973976;28;20039;-59
2022/12/20 00:30:13;;;;;;;37.63;21.15;;;;;;;;;;4982995;28;20476;-58
2022/12/20 00:32:40;;;;;;;42.15;21.83;;;;;;;;;;4972021;28;20145;-58
2022/12/20 00:35:06;;;;;;;41.50;21.27;;;;;;;;;;4976144;28;20510;-58
2022/12/20 00:37:31;;;;;;;43.40;23.85;;;;;;;;;;4974692;28;20671;-57
2022/12/20 00:39:57;;;;;;;44.63;24.65;;;;;;;;;;4977592;28;20027;-59
2022/12/20 00:42:22;;;;;;;46.40;22.52;;;;;;;;;;4980099;28;20035;-58
2022/12/20 00:44:47;;;;;;;44.47;22.10;;;;;;;;;;4974688;28;20027;-58
2022/12/20 00:47:13;;;;;;;43.10;22.33;;;;;;;;;;4976940;28;20085;-59
2022/12/20 00:49:39;;;;;;;36.80;20.58;;;;;;;;;;4983149;28;20038;-58
2022/12/20 00:52:04;;;;;;;38.55;22.00;;;;;;;;;;4977866;28;20040;-58
2022/12/20 00:54:29;;;;;;;45.00;22.92;;;;;;;;;;4972587;28;20038;-58
2022/12/20 00:56:54;;;;;;;47.53;24.92;;;;;;;;;;4977537;28;20051;-58
2022/12/20 00:59:20;;;;;;;54.45;27.27;;;;;;;;;;4981200;28;20078;-58
2022/12/20 01:01:46;;;;;;;54.80;27.88;;;;;;;;;;4973119;28;20272;-58
2022/12/20 01:04:11;;;;;;;54.97;26.60;;;;;;;;;;4977829;28;20847;-58
2022/12/20 01:06:37;;;;;;;50.20;25.75;;;;;;;;;;4972526;28;20683;-59
2022/12/20 01:09:02;;;;;;;42.55;23.38;;;;;;;;;;4973244;28;20033;-58
2022/12/20 01:11:29;;;;;;;42.08;22.85;;;;;;;;;;4980870;28;20034;-58
2022/12/20 01:13:57;;;;;;;40.15;21.90;;;;;;;;;;4982730;28;20088;-58
2022/12/20 01:16:24;;;;;;;46.20;23.55;;;;;;;;;;4973477;28;20038;-59
2022/12/20 01:18:50;;;;;;;42.25;23.52;;;;;;;;;;4974034;28;20026;-58
2022/12/20 01:21:16;;;;;;;37.72;19.88;;;;;;;;;;4980489;28;20453;-59
2022/12/20 01:23:41;;;;;;;38.65;19.55;;;;;;;;;;4974474;28;20058;-59
2022/12/20 01:26:09;;;;;;;44.55;24.15;;;;;;;;;;4973100;28;20124;-58
2022/12/20 01:28:36;;;;;;;47.90;25.35;;;;;;;;;;4974427;28;20668;-58
2022/12/20 01:31:04;;;;;;;50.25;26.70;;;;;;;;;;4974316;28;20039;-59
2022/12/20 01:33:30;;;;;;;53.00;24.83;;;;;;;;;;4983126;28;20050;-58
2022/12/20 01:35:56;;;;;;;45.05;24.98;;;;;;;;;;4973291;28;20062;-58
2022/12/20 01:38:22;;;;;;;47.17;24.43;;;;;;;;;;4973938;28;20027;-59
2022/12/20 01:40:47;;;;;;;52.50;26.05;;;;;;;;;;4977310;28;21093;-59
2022/12/20 01:43:14;;;;;;;48.05;25.98;;;;;;;;;;4975596;28;20169;-58
2022/12/20 01:45:39;;;;;;;51.38;25.05;;;;;;;;;;4974977;28;20155;-58
2022/12/20 01:48:05;;;;;;;51.78;25.67;;;;;;;;;;4975628;28;20169;-58
2022/12/20 01:50:30;;;;;;;50.78;24.88;;;;;;;;;;4981573;28;20023;-57
2022/12/20 01:52:57;;;;;;;45.83;23.38;;;;;;;;;;4978929;28;20054;-58
2022/12/20 01:55:24;;;;;;;50.45;23.60;;;;;;;;;;4974066;28;20046;-58
2022/12/20 01:57:51;;;;;;;46.53;23.75;;;;;;;;;;4976720;28;20379;-58
2022/12/20 02:00:17;;;;;;;44.50;23.75;;;;;;;;;;4980235;28;20972;-57
2022/12/20 02:02:44;;;;;;;40.83;21.77;;;;;;;;;;4971943;28;20055;-58
2022/12/20 02:05:09;;;;;;;42.92;22.70;;;;;;;;;;4974433;28;20136;-58
2022/12/20 02:07:37;;;;;;;46.33;23.13;;;;;;;;;;4975928;28;20137;-57
2022/12/20 02:10:03;;;;;;;46.08;25.25;;;;;;;;;;4974930;28;20070;-58
2022/12/20 02:12:32;;;;;;;49.90;23.52;;;;;;;;;;4975308;28;20031;-57
2022/12/20 02:15:13;;;;;;;43.63;23.73;;;;;;;;;;4978737;28;20078;-57
2022/12/20 02:17:45;;;;;;;46.55;25.23;;;;;;;;;;4974999;28;20727;-58
2022/12/20 02:20:28;;;;;;;45.55;24.02;;;;;;;;;;4976229;28;20489;-58
2022/12/20 02:23:06;;;;;;;42.40;22.33;;;;;;;;;;4972391;28;20031;-57
2022/12/20 02:25:31;;;;;;;;;;;;;;;;;;4975959;28;20034;-58
2022/12/20 02:28:15;;;;;;;41.80;19.53;;;;;;;;;;4974131;28;19921;-58
2022/12/20 02:30:42;;;;;;;38.35;21.02;;;;;;;;;;4973953;28;20579;-57
2022/12/20 02:33:10;;;;;;;42.08;21.30;;;;;;;;;;4987392;28;20085;-58
2022/12/20 02:35:36;;;;;;;38.78;21.02;;;;;;;;;;4957802;28;20074;-58
2022/12/20 02:38:04;;;;;;;44.13;23.55;;;;;;;;;;4976427;28;20434;-56
2022/12/20 02:40:38;;;;;;;61.05;23.50;;;;;;;;;;4973941;28;20027;-58
2022/12/20 02:45:14;;;;;;;42.22;20.30;;;;;;;;;;4974691;28;20035;-58
2022/12/20 02:45:51;;;;;;;38.50;20.38;;;;;;;;;;4973933;28;20134;-59
2022/12/20 02:48:17;;;;;;;37.20;20.38;;;;;;;;;;4973133;28;20106;-58
2022/12/20 02:50:44;;;;;;;37.63;20.00;;;;;;;;;;4974986;28;20121;-58
2022/12/20 02:53:10;;;;;;;;;;;;;;;;;;4980763;28;20042;-58
2022/12/20 02:55:41;;;;;;;37.80;19.15;;;;;;;;;;4980557;28;19925;-58
2022/12/20 02:58:11;;;;;;;36.92;19.70;;;;;;;;;;4973031;28;20031;-58
2022/12/20 03:00:39;;;;;;;35.05;19.40;;;;;;;;;;4973426;28;20044;-58
2022/12/20 03:03:23;;;;;;;40.25;18.90;;;;;;;;;;4981656;28;20037;-58
2022/12/20 03:05:50;;;;;;;37.30;19.05;;;;;;;;;;4987290;28;20041;-58
2022/12/20 03:08:17;;;;;;;42.05;18.73;;;;;;;;;;4982135;28;20023;-58
2022/12/20 03:10:43;;;;;;;34.00;18.13;;;;;;;;;;4973416;28;20037;-58
2022/12/20 03:13:08;;;;;;;36.08;19.13;;;;;;;;;;4975030;28;20151;-58
2022/12/20 03:15:36;;;;;;;35.28;18.52;;;;;;;;;;4963724;28;20093;-58
2022/12/20 03:18:02;;;;;;;39.05;19.02;;;;;;;;;;4973604;28;20050;-59
2022/12/20 03:20:28;;;;;;;35.42;19.27;;;;;;;;;;4979480;28;20022;-58
2022/12/20 03:22:54;;;;;;;37.97;19.73;;;;;;;;;;4972613;28;20548;-58
2022/12/20 03:25:20;;;;;;;33.78;18.73;;;;;;;;;;4973118;28;20121;-58
2022/12/20 03:27:45;;;;;;;34.28;19.10;;;;;;;;;;4977543;28;20574;-58
2022/12/20 03:30:11;;;;;;;39.40;19.55;;;;;;;;;;4987236;28;20532;-58
2022/12/20 03:32:36;;;;;;;31.08;17.15;;;;;;;;;;4973052;28;20043;-58
2022/12/20 03:35:02;;;;;;;33.83;16.88;;;;;;;;;;4972305;28;20066;-58
2022/12/20 03:37:35;;;;;;;28.95;14.65;;;;;;;;;;4974956;28;20492;-58
2022/12/20 03:40:04;;;;;;;31.60;15.43;;;;;;;;;;4972309;28;20041;-57
2022/12/20 03:42:29;;;;;;;31.75;15.00;;;;;;;;;;4974724;28;20122;-58
2022/12/20 03:44:55;;;;;;;28.70;14.38;;;;;;;;;;4972631;28;20039;-58
2022/12/20 03:47:22;;;;;;;;;;;;;;;;;;4966937;28;20030;-58
2022/12/20 03:49:47;;;;;;;23.23;13.80;;;;;;;;;;4970212;28;20336;-58
2022/12/20 03:52:14;;;;;;;27.33;14.10;;;;;;;;;;4974813;28;21016;-58
2022/12/20 03:54:40;;;;;;;;;;;;;;;;;;4966527;28;20067;-58
2022/12/20 03:57:12;;;;;;;26.58;14.18;;;;;;;;;;4975718;28;19929;-58
2022/12/20 03:59:38;;;;;;;25.80;14.20;;;;;;;;;;4979960;28;20054;-58
2022/12/20 04:02:05;;;;;;;26.88;15.15;;;;;;;;;;4976043;28;20038;-58
2022/12/20 04:04:31;;;;;;;27.52;13.93;;;;;;;;;;4976756;28;20046;-57
2022/12/20 04:06:57;;;;;;;23.58;13.25;;;;;;;;;;4973179;28;20030;-59
2022/12/20 04:09:22;;;;;;;28.08;13.70;;;;;;;;;;4971900;28;20089;-59
2022/12/20 04:11:53;;;;;;;30.48;14.85;;;;;;;;;;4973943;28;20553;-57
2022/12/20 04:14:18;;;;;;;29.02;14.00;;;;;;;;;;4980122;28;20656;-57
2022/12/20 04:16:44;;;;;;;29.92;13.48;;;;;;;;;;4979762;28;20035;-56
2022/12/20 04:19:10;;;;;;;31.42;13.77;;;;;;;;;;4971307;28;20110;-57
2022/12/20 04:21:40;;;;;;;23.13;12.88;;;;;;;;;;4979487;28;20040;-58
2022/12/20 04:24:05;;;;;;;23.33;12.30;;;;;;;;;;4978380;28;20035;-58
2022/12/20 04:26:57;;;;;;;22.58;11.88;;;;;;;;;;4976299;28;20548;-57
2022/12/20 04:29:22;;;;;;;24.60;12.05;;;;;;;;;;4973818;28;20117;-57
2022/12/20 04:31:48;;;;;;;20.08;11.15;;;;;;;;;;4977294;28;20122;-57
2022/12/20 04:34:14;;;;;;;23.35;11.95;;;;;;;;;;4972201;28;20034;-58
2022/12/20 04:36:39;;;;;;;23.05;12.02;;;;;;;;;;4973313;28;20058;-58
2022/12/20 04:39:09;;;;;;;20.73;11.15;;;;;;;;;;4977714;28;20038;-57
2022/12/20 04:41:45;;;;;;;21.00;11.73;;;;;;;;;;4981945;28;20038;-57
2022/12/20 04:44:12;;;;;;;21.80;12.38;;;;;;;;;;4975633;28;20030;-57
2022/12/20 04:46:37;;;;;;;22.50;11.50;;;;;;;;;;4974482;28;20732;-57
2022/12/20 04:49:05;;;;;;;26.58;14.07;;;;;;;;;;4981701;28;20031;-57
2022/12/20 04:51:33;;;;;;;25.48;13.55;;;;;;;;;;4979930;28;20114;-57
2022/12/20 04:53:59;;;;;;;27.85;14.95;;;;;;;;;;4977024;28;20039;-57
2022/12/20 04:56:39;;;;;;;23.88;14.52;;;;;;;;;;4990035;28;20539;-57
2022/12/20 04:59:09;;;;;;;23.17;12.85;;;;;;;;;;4981149;28;20474;-57
2022/12/20 05:01:35;;;;;;;20.80;12.18;;;;;;;;;;4975878;28;20505;-58
2022/12/20 05:04:01;;;;;;;21.30;11.23;;;;;;;;;;4977965;28;20031;-58
2022/12/20 05:06:30;;;;;;;21.15;11.23;;;;;;;;;;4983806;28;20042;-57
2022/12/20 05:08:56;;;;;;;19.25;12.00;;;;;;;;;;4977300;28;20037;-57
2022/12/20 05:11:21;;;;;;;22.30;10.95;;;;;;;;;;4976374;28;20486;-57
2022/12/20 05:13:47;;;;;;;21.88;11.65;;;;;;;;;;4975819;28;20084;-58
2022/12/20 05:16:15;;;;;;;20.55;11.23;;;;;;;;;;4963001;28;20030;-58
2022/12/20 05:18:41;;;;;;;23.00;12.18;;;;;;;;;;4974581;28;20030;-58
2022/12/20 05:27:02;;;;;;;23.95;12.77;;;;;;;;;;4959993;28;20043;-58
2022/12/20 05:29:28;;;;;;;24.85;13.30;;;;;;;;;;4973531;28;20034;-58
2022/12/20 05:31:54;;;;;;;26.27;13.75;;;;;;;;;;4979605;28;20031;-58
2022/12/20 05:34:19;;;;;;;24.35;13.05;;;;;;;;;;4977904;28;20041;-59
2022/12/20 05:36:50;;;;;;;22.05;13.27;;;;;;;;;;4960837;28;20035;-58
2022/12/20 05:39:15;;;;;;;24.85;12.60;;;;;;;;;;4977768;28;20060;-57
2022/12/20 05:41:43;;;;;;;21.50;12.73;;;;;;;;;;4980428;28;20029;-58
2022/12/20 05:44:09;;;;;;;33.33;15.40;;;;;;;;;;4981386;28;20665;-59
2022/12/20 05:46:37;;;;;;;29.80;14.38;;;;;;;;;;4976424;28;20042;-58
2022/12/20 05:49:08;;;;;;;26.08;14.45;;;;;;;;;;4974443;28;20031;-59
2022/12/20 05:51:34;;;;;;;30.70;16.73;;;;;;;;;;4974736;28;20045;-58
2022/12/20 05:54:28;;;;;;;25.77;14.32;;;;;;;;;;4965819;28;20464;-58
2022/12/20 05:57:15;;;;;;;24.73;14.52;;;;;;;;;;4976141;28;20038;-58
2022/12/20 05:59:41;;;;;;;25.17;15.68;;;;;;;;;;4975958;28;20048;-59
2022/12/20 06:02:15;;;;;;;27.45;15.25;;;;;;;;;;4974903;28;20085;-58
2022/12/20 06:04:41;;;;;;;24.43;15.83;;;;;;;;;;4977861;28;20698;-58
2022/12/20 06:07:20;;;;;;;26.33;14.95;;;;;;;;;;4973154;28;20452;-58
2022/12/20 06:09:48;;;;;;;24.92;14.88;;;;;;;;;;4973171;28;20027;-58
2022/12/20 06:12:23;;;;;;;22.83;14.75;;;;;;;;;;4975358;28;20096;-58
2022/12/20 06:14:50;;;;;;;26.98;15.05;;;;;;;;;;4974334;28;20062;-58
2022/12/20 06:17:17;;;;;;;33.60;17.17;;;;;;;;;;4972245;28;20077;-58
2022/12/20 06:19:42;;;;;;;29.92;16.67;;;;;;;;;;4974639;28;20026;-58
2022/12/20 06:22:10;;;;;;;32.33;16.77;;;;;;;;;;4979882;28;20046;-59
2022/12/20 06:24:46;;;;;;;30.73;16.33;;;;;;;;;;4981497;28;20023;-58
2022/12/20 06:27:12;;;;;;;32.50;16.80;;;;;;;;;;4974712;28;20030;-59
2022/12/20 06:29:37;;;;;;;32.42;16.90;;;;;;;;;;4976423;28;20110;-58
2022/12/20 06:32:07;;;;;;;27.27;16.25;;;;;;;;;;4973833;28;20026;-59
2022/12/20 06:34:32;;;;;;;29.15;15.57;;;;;;;;;;4972842;28;20053;-58
2022/12/20 06:36:58;;;;;;;29.73;16.75;;;;;;;;;;4974078;28;20046;-58
2022/12/20 06:39:27;;;;;;;27.05;15.40;;;;;;;;;;4957105;28;20096;-58
2022/12/20 06:42:03;;;;;;;27.80;14.80;;;;;;;;;;4972955;28;20548;-58
2022/12/20 06:44:29;;;;;;;29.00;16.38;;;;;;;;;;4974396;28;20118;-59
2022/12/20 06:46:54;;;;;;;26.73;15.73;;;;;;;;;;4970894;28;20090;-59
2022/12/20 06:49:21;;;;;;;29.05;16.52;;;;;;;;;;4971138;28;20030;-58
2022/12/20 06:51:47;;;;;;;27.50;16.50;;;;;;;;;;4982339;28;20136;-58
2022/12/20 06:54:12;;;;;;;24.52;15.18;;;;;;;;;;4973643;28;20129;-58
2022/12/20 06:56:38;;;;;;;27.38;15.75;;;;;;;;;;4973160;28;20054;-58
2022/12/20 06:59:07;;;;;;;25.00;15.07;;;;;;;;;;4975851;28;20069;-59
2022/12/20 07:01:32;;;;;;;28.83;16.58;;;;;;;;;;4977163;28;20158;-58
2022/12/20 07:03:58;;;;;;;28.13;17.15;;;;;;;;;;4978591;28;20035;-58
2022/12/20 07:06:23;;;;;;;31.98;18.10;;;;;;;;;;4977242;28;20034;-58
2022/12/20 07:08:48;;;;;;;27.05;16.58;;;;;;;;;;4976162;28;20468;-56
2022/12/20 07:11:14;;;;;;;31.40;17.55;;;;;;;;;;4976030;28;20160;-57
2022/12/20 07:13:39;;;;;;;26.05;16.73;;;;;;;;;;4977251;28;20468;-57
2022/12/20 07:16:04;;;;;;;24.67;14.90;;;;;;;;;;4982080;28;20038;-58
2022/12/20 07:18:30;;;;;;;31.52;16.90;;;;;;;;;;4975028;28;20114;-58
2022/12/20 07:20:59;;;;;;;25.98;15.60;;;;;;;;;;4974429;28;20409;-58
2022/12/20 07:23:25;;;;;;;22.48;12.63;;;;;;;;;;4973046;28;20038;-58
2022/12/20 07:25:57;;;;;;;25.42;15.55;;;;;;;;;;4976182;28;20033;-58
2022/12/20 07:28:22;;;;;;;29.38;16.42;;;;;;;;;;4978181;28;20102;-58
2022/12/20 07:30:48;;;;;;;31.08;18.20;;;;;;;;;;4975732;28;20536;-58
2022/12/20 07:33:13;;;;;;;38.95;22.83;;;;;;;;;;4961453;28;20070;-57
2022/12/20 07:35:39;;;;;;;43.17;21.95;;;;;;;;;;4975974;28;20042;-56
2022/12/20 07:38:04;;;;;;;38.67;20.23;;;;;;;;;;4977038;28;20046;-57
2022/12/20 07:40:30;;;;;;;31.88;18.77;;;;;;;;;;4975571;28;20157;-58
2022/12/20 07:42:55;;;;;;;30.17;17.17;;;;;;;;;;4978573;28;20088;-58
2022/12/20 07:45:20;;;;;;;29.67;15.10;;;;;;;;;;4975912;28;20115;-58
2022/12/20 07:47:46;;;;;;;28.23;16.10;;;;;;;;;;4977189;28;20034;-58
2022/12/20 07:50:11;;;;;;;30.50;16.23;;;;;;;;;;4977414;28;20062;-58
2022/12/20 07:52:37;;;;;;;31.05;16.90;;;;;;;;;;4972512;28;20093;-59
2022/12/20 07:55:06;;;;;;;32.45;18.90;;;;;;;;;;4978000;28;20084;-58
2022/12/20 07:57:37;;;;;;;27.15;17.27;;;;;;;;;;4979096;28;20045;-59
2022/12/20 08:00:03;;;;;;;30.52;17.83;;;;;;;;;;4974716;28;20115;-59
2022/12/20 08:02:46;;;;;;;26.75;16.55;;;;;;;;;;4971648;28;20080;-58
2022/12/20 08:05:11;;;;;;;34.10;18.77;;;;;;;;;;4971231;28;20073;-58
2022/12/20 08:07:38;;;;;;;37.90;20.10;;;;;;;;;;4975620;28;20057;-58
2022/12/20 08:10:04;;;;;;;30.80;17.92;;;;;;;;;;4974997;28;20081;-58
2022/12/20 08:12:31;;;;;;;30.33;18.27;;;;;;;;;;4981347;28;20034;-58
2022/12/20 08:14:57;;;;;;;25.08;16.52;;;;;;;;;;4976952;28;20038;-59
2022/12/20 08:17:22;;;;;;;31.33;17.58;;;;;;;;;;4975433;28;20046;-57
2022/12/20 08:19:50;;;;;;;29.45;17.90;;;;;;;;;;4978869;28;20031;-57
2022/12/20 08:22:16;;;;;;;29.35;16.75;;;;;;;;;;4979990;28;20030;-58
2022/12/20 08:24:41;;;;;;;27.65;16.20;;;;;;;;;;4982449;28;20029;-58
2022/12/20 08:27:07;;;;;;;32.90;17.05;;;;;;;;;;4979262;28;20124;-58
2022/12/20 08:29:33;;;;;;;35.60;18.27;;;;;;;;;;4981172;28;20034;-58
2022/12/20 08:31:58;;;;;;;28.92;16.77;;;;;;;;;;4979643;28;20030;-58
2022/12/20 08:34:23;;;;;;;34.15;17.70;;;;;;;;;;4978802;28;20118;-58
2022/12/20 08:36:48;;;;;;;35.50;20.30;;;;;;;;;;4976401;28;20073;-58
2022/12/20 08:39:14;;;;;;;31.73;19.80;;;;;;;;;;4984200;28;20694;-58
2022/12/20 08:41:39;;;;;;;44.65;27.25;;;;;;;;;;4978066;28;20031;-58
2022/12/20 08:44:05;;;;;;;41.55;25.92;;;;;;;;;;4981408;28;20129;-59
2022/12/20 08:46:30;;;;;;;41.45;24.70;;;;;;;;;;4981419;28;20037;-58
2022/12/20 08:48:55;;;;;;;40.63;24.10;;;;;;;;;;4978997;28;20026;-58
2022/12/20 08:51:21;;;;;;;42.50;22.80;;;;;;;;;;4979533;28;20077;-58
2022/12/20 08:53:46;;;;;;;34.58;19.42;;;;;;;;;;4975337;28;20133;-58
2022/12/20 08:56:13;;;;;;;34.60;18.85;;;;;;;;;;4975728;28;20552;-58
2022/12/20 08:58:38;;;;;;;34.92;18.60;;;;;;;;;;4983877;28;20117;-58
2022/12/20 09:01:08;;;;;;;32.08;17.75;;;;;;;;;;4973975;28;20125;-58
2022/12/20 09:03:34;;;;;;;30.38;17.23;;;;;;;;;;4989050;28;20081;-58
2022/12/20 09:05:59;;;;;;;36.60;20.88;;;;;;;;;;4973514;28;20085;-57
2022/12/20 09:08:25;;;;;;;33.70;20.80;;;;;;;;;;4978505;28;20038;-58
2022/12/20 09:10:51;;;;;;;35.65;20.52;;;;;;;;;;4964473;28;20034;-58
2022/12/20 09:13:17;;;;;;;35.55;18.98;;;;;;;;;;4977618;28;20448;-58
2022/12/20 09:15:44;;;;;;;38.85;21.05;;;;;;;;;;4978451;28;20545;-58
2022/12/20 09:18:09;;;;;;;40.53;21.37;;;;;;;;;;4977479;28;20111;-59
2022/12/20 09:20:34;;;;;;;47.10;24.85;;;;;;;;;;4974145;28;20536;-58
2022/12/20 09:23:00;;;;;;;45.58;22.95;;;;;;;;;;4977562;28;20109;-58
2022/12/20 09:25:26;;;;;;;55.45;27.83;;;;;;;;;;4966661;28;20038;-58
2022/12/20 09:27:52;;;;;;;63.40;28.77;;;;;;;;;;4979916;28;20042;-58
2022/12/20 09:30:17;;;;;;;62.42;26.63;;;;;;;;;;4977223;28;20034;-58
2022/12/20 09:32:42;;;;;;;49.67;25.00;;;;;;;;;;4980817;28;20042;-58
2022/12/20 09:35:08;;;;;;;49.92;25.05;;;;;;;;;;4979128;28;20039;-58
2022/12/20 09:37:33;;;;;;;42.72;26.63;;;;;;;;;;4978947;28;20142;-58
2022/12/20 09:39:58;;;;;;;50.35;28.98;;;;;;;;;;4961281;28;20042;-58
2022/12/20 09:42:25;;;;;;;52.20;29.67;;;;;;;;;;4979578;28;20046;-58
2022/12/20 09:44:51;;;;;;;57.08;30.30;;;;;;;;;;4978782;28;20121;-59
2022/12/20 09:47:18;;;;;;;64.40;31.55;;;;;;;;;;4975929;28;20146;-58
2022/12/20 09:49:45;;;;;;;58.60;29.10;;;;;;;;;;4983219;28;20477;-58
2022/12/20 09:52:18;;;;;;;66.70;29.42;;;;;;;;;;4974516;28;20113;-58
2022/12/20 09:55:07;;;;;;;61.05;28.90;;;;;;;;;;4978675;28;20038;-58
2022/12/20 09:57:32;;;;;;;62.03;29.48;;;;;;;;;;4962334;28;20073;-58
2022/12/20 09:59:58;;;;;;;57.90;28.20;;;;;;;;;;4974691;28;20030;-58
2022/12/20 10:02:24;;;;;;;57.40;28.85;;;;;;;;;;4974720;28;20039;-58
2022/12/20 10:04:50;;;;;;;63.15;29.48;;;;;;;;;;4977247;28;20050;-56
2022/12/20 10:07:15;;;;;;;53.67;29.67;;;;;;;;;;4975132;28;20045;-57
2022/12/20 10:09:59;;;;;;;56.20;29.10;;;;;;;;;;4985016;28;20034;-57
2022/12/20 10:12:43;;;;;;;54.97;30.25;;;;;;;;;;4970109;28;20450;-57
2022/12/20 10:15:11;;;;;;;58.67;30.80;;;;;;;;;;4973100;28;20030;-57
2022/12/20 10:17:41;;;;;;;54.20;28.38;;;;;;;;;;4990870;28;20441;-57
2022/12/20 10:20:13;;;;;;;60.00;29.60;;;;;;;;;;4974165;28;20069;-57
2022/12/20 10:22:42;;;;;;;56.08;29.35;;;;;;;;;;4975575;28;20035;-57
2022/12/20 10:25:21;;;;;;;57.75;28.15;;;;;;;;;;4974080;28;20041;-57
2022/12/20 10:27:49;;;;;;;56.00;29.38;;;;;;;;;;4976142;28;20056;-57
2022/12/20 10:30:15;;;;;;;56.72;28.70;;;;;;;;;;4976635;28;20030;-57
2022/12/20 10:32:44;;;;;;;55.45;27.58;;;;;;;;;;4973001;28;20039;-57
2022/12/20 10:35:10;;;;;;;48.25;26.58;;;;;;;;;;4979082;28;20037;-58
2022/12/20 10:37:35;;;;;;;42.92;24.00;;;;;;;;;;4977496;28;20047;-57
2022/12/20 10:40:01;;;;;;;39.55;23.02;;;;;;;;;;4977975;28;20070;-57
2022/12/20 10:42:29;;;;;;;41.97;22.92;;;;;;;;;;4975648;28;20031;-59
2022/12/20 10:44:55;;;;;;;44.40;25.65;;;;;;;;;;4975625;28;20038;-58
2022/12/20 10:47:24;;;;;;;57.33;29.35;;;;;;;;;;4976074;28;20038;-58
2022/12/20 10:49:49;;;;;;;49.08;28.45;;;;;;;;;;4977831;28;20042;-58
2022/12/20 10:52:16;;;;;;;56.92;30.02;;;;;;;;;;4973608;28;20102;-58
2022/12/20 10:54:43;;;;;;;52.58;26.48;;;;;;;;;;4979424;28;20052;-58
2022/12/20 10:57:11;;;;;;;47.10;25.17;;;;;;;;;;4975606;28;20469;-58
2022/12/20 10:59:38;;;;;;;58.33;26.00;;;;;;;;;;4975684;28;20035;-58
2022/12/20 11:02:22;;;;;;;50.97;27.63;;;;;;;;;;4972984;28;20031;-58
2022/12/20 11:04:58;;;;;;;44.63;25.15;;;;;;;;;;4974489;28;20362;-58
2022/12/20 11:07:25;;;;;;;43.53;24.67;;;;;;;;;;4973774;28;20418;-61
2022/12/20 11:09:53;;;;;;;50.45;26.30;;;;;;;;;;4974057;28;20054;-59
2022/12/20 11:12:18;;;;;;;46.40;25.70;;;;;;;;;;4975295;28;20039;-59
2022/12/20 11:14:45;;;;;;;40.40;24.35;;;;;;;;;;4972670;28;20052;-58
2022/12/20 11:17:20;;;;;;;49.70;25.67;;;;;;;;;;4972966;28;20043;-59
2022/12/20 11:19:45;;;;;;;45.05;24.23;;;;;;;;;;4973560;28;20049;-57
2022/12/20 11:22:10;;;;;;;44.83;24.67;;;;;;;;;;4977117;28;20038;-59
2022/12/20 11:24:45;;;;;;;38.08;22.17;;;;;;;;;;4977442;28;20034;-58
2022/12/20 11:27:10;;;;;;;48.75;25.13;;;;;;;;;;4973141;28;20030;-58
2022/12/20 11:29:41;;;;;;;48.47;24.13;;;;;;;;;;4973039;28;20034;-58
2022/12/20 11:32:25;;;;;;;52.92;25.98;;;;;;;;;;4974861;28;20035;-58
2022/12/20 11:34:53;;;;;;;42.97;22.92;;;;;;;;;;4970827;28;20466;-59
2022/12/20 11:37:21;;;;;;;43.90;24.85;;;;;;;;;;4977620;28;20066;-57
2022/12/20 11:39:56;;;;;;;49.70;27.60;;;;;;;;;;4977608;28;20045;-58
2022/12/20 11:42:21;;;;;;;47.08;27.65;;;;;;;;;;4978816;28;20035;-57
2022/12/20 11:44:58;;;;;;;44.85;26.63;;;;;;;;;;4975683;28;20030;-58
2022/12/20 11:47:27;;;;;;;43.33;23.50;;;;;;;;;;4974762;28;20038;-57
2022/12/20 11:49:58;;;;;;;41.97;21.70;;;;;;;;;;4970371;28;20039;-57
2022/12/20 11:52:40;;;;;;;34.45;19.77;;;;;;;;;;4972857;28;20627;-58
2022/12/20 11:55:11;;;;;;;29.58;17.25;;;;;;;;;;4978836;28;20026;-57
2022/12/20 11:57:42;;;;;;;31.55;16.73;;;;;;;;;;4981725;28;20038;-56
2022/12/20 12:00:12;;;;;;;31.58;15.05;;;;;;;;;;4978650;28;20033;-57
2022/12/20 12:02:47;;;;;;;29.95;15.18;;;;;;;;;;4979076;28;20031;-58
2022/12/20 12:05:18;;;;;;;34.00;18.50;;;;;;;;;;4961692;28;20034;-57
2022/12/20 12:07:46;;;;;;;31.83;18.23;;;;;;;;;;4981436;28;20026;-58
2022/12/20 12:10:14;;;;;;;36.65;21.08;;;;;;;;;;4986732;28;20034;-59
2022/12/20 12:12:46;;;;;;;53.92;29.10;;;;;;;;;;4975347;28;20576;-59
2022/12/20 12:15:12;;;;;;;79.25;40.95;;;;;;;;;;4978688;28;20062;-58
2022/12/20 12:17:41;;;;;;;64.43;33.83;;;;;;;;;;4977440;28;20117;-58
2022/12/20 12:20:18;;;;;;;69.13;36.95;;;;;;;;;;4978424;28;20476;-58
2022/12/20 12:22:45;;;;;;;64.35;35.42;;;;;;;;;;4980163;28;20023;-59
2022/12/20 12:25:12;;;;;;;61.88;30.00;;;;;;;;;;4982906;28;20034;-58
2022/12/20 12:27:38;;;;;;;49.30;25.88;;;;;;;;;;4986210;28;20039;-58
2022/12/20 12:30:04;;;;;;;53.42;26.27;;;;;;;;;;4979532;28;20104;-58
2022/12/20 12:32:37;;;;;;;61.42;27.85;;;;;;;;;;4975498;28;20037;-57
2022/12/20 12:35:02;;;;;;;61.92;29.75;;;;;;;;;;4979764;28;20361;-58
2022/12/20 12:37:31;;;;;;;66.75;33.60;;;;;;;;;;4982325;28;20046;-58
2022/12/20 12:40:15;;;;;;;57.28;29.50;;;;;;;;;;4978840;28;20496;-58
2022/12/20 12:43:00;;;;;;;56.15;28.48;;;;;;;;;;4979795;28;20026;-59
2022/12/20 12:45:30;;;;;;;68.47;38.70;;;;;;;;;;4953116;28;20070;-58
2022/12/20 12:47:58;;;;;;;62.80;34.95;;;;;;;;;;4975638;28;20039;-58
2022/12/20 12:50:41;;;;;;;62.75;34.55;;;;;;;;;;4971509;28;20061;-58
2022/12/20 12:53:11;;;;;;;59.63;33.40;;;;;;;;;;4983118;28;20527;-59
2022/12/20 12:55:44;;;;;;;68.47;34.70;;;;;;;;;;4983534;28;20533;-58
2022/12/20 12:58:21;;;;;;;61.25;32.42;;;;;;;;;;4979790;28;20045;-58
2022/12/20 13:00:54;;;;;;;55.97;32.13;;;;;;;;;;4977723;28;20458;-58
2022/12/20 13:03:38;;;;;;;67.85;34.45;;;;;;;;;;4975512;28;20077;-58
2022/12/20 13:06:24;;;;;;;53.22;27.60;;;;;;;;;;4992097;28;20070;-58
2022/12/20 13:08:49;;;;;;;52.58;28.92;;;;;;;;;;4936515;28;20421;-57
2022/12/20 13:11:28;;;;;;;47.70;25.15;;;;;;;;;;4976727;28;20084;-57
2022/12/20 13:14:11;;;;;;;43.60;24.75;;;;;;;;;;4980210;28;20089;-59
2022/12/20 13:16:38;;;;;;;45.83;26.27;;;;;;;;;;4979699;28;20072;-58
2022/12/20 13:19:10;;;;;;;49.47;28.40;;;;;;;;;;4977965;28;20042;-58
2022/12/20 13:21:36;;;;;;;42.35;25.40;;;;;;;;;;4978633;28;20485;-58
2022/12/20 13:24:20;;;;;;;51.78;29.60;;;;;;;;;;4972040;28;20031;-58
2022/12/20 13:26:51;;;;;;;45.08;26.42;;;;;;;;;;4977589;28;20045;-58
2022/12/20 13:29:32;;;;;;;47.22;26.30;;;;;;;;;;4977537;28;20035;-58
2022/12/20 13:31:58;;;;;;;42.97;25.45;;;;;;;;;;4975876;28;20107;-58
2022/12/20 13:34:35;;;;;;;52.92;28.33;;;;;;;;;;4973623;28;20391;-58
2022/12/20 13:37:00;;;;;;;49.17;27.98;;;;;;;;;;4971690;28;20031;-58
2022/12/20 13:39:26;;;;;;;45.17;26.48;;;;;;;;;;4986559;28;20037;-58
2022/12/20 13:42:05;;;;;;;44.35;25.15;;;;;;;;;;4973517;28;20034;-58
2022/12/20 13:44:33;;;;;;;45.78;26.75;;;;;;;;;;4975095;28;20030;-58
2022/12/20 13:47:01;;;;;;;51.08;28.80;;;;;;;;;;4977252;28;20038;-58
2022/12/20 13:49:31;;;;;;;62.03;29.92;;;;;;;;;;4962622;28;20045;-58
2022/12/20 13:52:06;;;;;;;50.63;28.48;;;;;;;;;;4978136;28;20026;-57
2022/12/20 13:54:31;;;;;;;48.55;25.75;;;;;;;;;;4977898;28;20039;-57
2022/12/20 13:56:58;;;;;;;55.55;31.30;;;;;;;;;;4966863;28;20411;-58
2022/12/20 13:59:28;;;;;;;58.58;31.67;;;;;;;;;;4976856;28;20109;-59
2022/12/20 14:01:54;;;;;;;82.25;43.88;;;;;;;;;;4975876;28;20037;-59
2022/12/20 14:04:20;;;;;;;73.75;39.08;;;;;;;;;;4982615;28;20027;-59
2022/12/20 14:06:50;;;;;;;76.53;40.45;;;;;;;;;;4973950;28;20035;-59
2022/12/20 14:09:31;;;;;;;86.28;48.72;;;;;;;;;;4979751;28;20037;-59
2022/12/20 14:12:10;;;;;;;75.70;42.67;;;;;;;;;;4984117;28;20456;-59
2022/12/20 14:14:46;;;;;;;70.18;40.80;;;;;;;;;;4976797;28;20039;-59
2022/12/20 14:17:28;;;;;;;90.93;47.00;;;;;;;;;;4977525;28;20081;-58
2022/12/20 14:20:16;;;;;;;99.05;49.50;;;;;;;;;;4975725;28;20434;-58
2022/12/20 14:22:51;;;;;;;91.65;49.60;;;;;;;;;;4964973;28;20125;-58
2022/12/20 14:25:20;;;;;;;100.05;53.63;;;;;;;;;;4976216;28;20493;-58
2022/12/20 14:27:46;;;;;;;104.40;52.90;;;;;;;;;;4985389;28;20065;-60
2022/12/20 14:30:47;;;;;;;92.80;49.60;;;;;;;;;;4973630;28;20476;-60
2022/12/20 14:33:17;;;;;;;72.15;37.92;;;;;;;;;;4897773;29;20675;-59